AirNav   Everest Fuels
 
 1014 users online  

KAXQ Clarion County Airport
Clarion, Pennsylvania, USA

GOING TO CLARION?


FAA INFORMATION EFFECTIVE 05 NOVEMBER 2020

Location

FAA Identifier: AXQ
Lat/Long: 41-13-29.8000N 079-26-31.8000W
41-13.496667N 079-26.530000W
41.2249444,-79.4421667
(estimated)
Elevation: 1457.5 ft. / 444.2 m (surveyed)
Variation: 10W (2005)
From city: 3 miles NW of CLARION, PA
Time zone: UTC -5 (UTC -4 during Daylight Saving Time)
Zip code: 16254

Airport Operations

Airport use: Open to the public
Activation date: 04/1974
Control tower: no
ARTCC: CLEVELAND CENTER
FSS: ALTOONA FLIGHT SERVICE STATION
NOTAMs facility: AOO (NOTAM-D service available)
Attendance: 0800-1600
UNATTENDED CHRISTMAS, EASTER & THANKSGIVING.
Wind indicator: lighted
Segmented circle: no
Lights: ACTVT MIRL RY 06/24, REIL RYS 06 & 24 AND PAPI RYS 06 & 24 - CTAF.
Beacon: white-green (lighted land airport)
Operates sunset to sunrise.
Landing fee: yes

Airport Communications

CTAF/UNICOM: 122.8
WX AWOS-3: 118.275 (814-227-2899)
  • APCH/DEP SVC PRVDD BY CLEVELAND ARTCC (ZOB) ON FREQS 126.725/291.65 (DUBOIS RCAG).

Nearby radio navigation aids

VOR radial/distance  VOR name  Freq  Var
CIPr015/4.8CLARION VOR/DME112.9006W
FKLr130/(22.6)FRANKLIN VOR109.6006W

Airport Services

Fuel available: 100LL JET-A+
SINGLE POINT REFUELING AVAILABLE UPON REQUEST.
Parking: hangars and tiedowns
Bottled oxygen: NONE
Bulk oxygen: NONE

Runway Information

Runway 6/24

Dimensions: 5003 x 75 ft. / 1525 x 23 m
Surface: asphalt, in good condition
Weight bearing capacity: 
Single wheel: 15.0
Runway edge lights: medium intensity
RUNWAY 6  RUNWAY 24
Latitude: 41-13.203123N41-13.788593N
Longitude: 079-26.913500W079-26.145995W
Elevation: 1433.1 ft.1457.4 ft.
Traffic pattern: leftleft
Runway heading: 055 magnetic, 045 true235 magnetic, 225 true
Markings: nonprecision, in good conditionnonprecision, in good condition
Visual slope indicator: 2-light PAPI on left (3.00 degrees glide path)2-light PAPI on left (3.00 degrees glide path)
Runway end identifier lights: yesyes
Touchdown point: yes, no lightsyes, no lights
Obstructions: 12 ft. trees, 493 ft. from runway, 255 ft. left of centerline, 24:1 slope to clear37 ft. trees, 851 ft. from runway, 329 ft. left of centerline, 17:1 slope to clear

Airport Ownership and Management from official FAA records

Ownership: Publicly-owned
Owner: CLARION COUNTY ARPT AUTH
395 AIRPORT RD
SHIPPENVILLE, PA 16254
Phone 814-226-9993
Manager: JAMES MCCALL
395 AIRPORT ROAD
SHIPPENVILLE, PA 16254
Phone (814) 226-9993
AFT HRS CALL (814) 316-5746.

Airport Operational Statistics

Aircraft based on the field: 14
Single engine airplanes: 12
Helicopters: 2
    
Aircraft operations: avg 53/week *
53% local general aviation
46% transient general aviation
1% military
* for 12-month period ending 02 September 2020

Additional Remarks

FOR CD CTC CLEVELAND ARTCC AT 440-774-0234/0442.

Instrument Procedures

NOTE: All procedures below are presented as PDF files. If you need a reader for these files, you should download the free Adobe Reader.

NOT FOR NAVIGATION. Please procure official charts for flight.
FAA instrument procedures published for use from 05 November 2020 at 0901Z to 03 December 2020 at 0900z.

 
IAPs - Instrument Approach Procedures
RNAV (GPS) RWY 06   download (229KB)
RNAV (GPS) RWY 24   download (198KB)
NOTE: Special Take-Off Minimums/Departure Procedures apply   download (149KB)

Other nearby airports with instrument procedures:

KFKL - Venango Regional Airport (21 nm NW)
KDUJ - Dubois Regional Airport (25 nm E)
6G1 - Titusville Airport (27 nm NW)
N35 - Punxsutawney Municipal Airport (28 nm SE)
6P7 - McVille Airport (30 nm S)
 
Loc | Ops | Rwys | IFR | FBO | Links
Com | Nav | Svcs | Stats | Notes
Area around KAXQ (Clarion County Airport)
 
Road maps at: MapQuest Bing Google
 
Aerial photo
WARNING: Photo may not be current or correct
Aerial photo of KAXQ (Clarion County Airport)
Photo by William Pixley
Photo taken 23-Aug-2016
looking east.

Do you have a better or more recent aerial photo of Clarion County Airport that you would like to share? If so, please send us your photo.

 
Sectional chart

 
Airport diagram
CAUTION: Diagram may not be current
Diagram of KAXQ (Clarion County Airport)
 
Airport distance calculator
Flying to Clarion County Airport? Find the distance to fly.

From to KAXQ

Sunrise and sunset
Times for 01-Dec-2020
 Local
(UTC-5)
 Zulu
(UTC)
Morning civil twilight06:5511:55
Sunrise07:2612:26
Sunset16:4821:48
Evening civil twilight17:1922:19

Current date and time
Zulu (UTC)  02-Dec-2020 00:59:17
Local (UTC-5)  01-Dec-2020 19:59:17
 
METAR
KFKL 
21nm NW 
020035Z AUTO 25010G17KT 1 1/2SM -SN BR OVC005 M03/M03 A2971 RMK AO2 P0000 FZRANO
KDUJ 
25nm E 
020045Z AUTO 24018G28KT 2 1/2SM -SN BR BKN009 OVC013 M03/M04 A2967 RMK AO2 PK WND 24028/0027 CIG 007V012 P0000 T10281044
KBTP 
36nm SW 
020053Z AUTO 24012G18KT 3SM -SN BR OVC007 M02/M03 A2980 RMK AO2 CIG 006V012 FZRANO PNO $
KIDI 
40nm SE 
020035Z AUTO 26013KT 1 3/4SM BR FEW003 OVC008 M02/M02 A2980 RMK A01
KPJC 
41nm SW 
020035Z AUTO 26005KT 2SM -SN SCT007 OVC014 M01/M01 A2981 RMK AO2
TAF
KFKL 
21nm NW 
011720Z 0118/0218 27014G23KT 1 1/2SM -SN OVC008 TEMPO 0118/0121 1/2SM SHSN OVC005 FM020400 27013KT 2SM -SHSN OVC010 FM020600 27013KT 4SM -SHSN OVC015 FM021100 27012KT P6SM VCSH BKN015 FM021600 27013G21KT P6SM BKN035
KDUJ 
25nm E 
011720Z 0118/0218 25016G26KT 1 1/2SM -SN OVC008 TEMPO 0118/0121 1/2SM SHSN OVC005 FM020000 25015G25KT 2SM -SHSN OVC006 FM020800 26014G24KT 3SM -SHSN OVC011 FM021100 26013G23KT P6SM VCSH OVC015 FM021600 27015G25KT P6SM BKN023
NOTAMs
Click for the latest NOTAMs
NOTAMs are issued by the DoD/FAA and will open in a separate window not controlled by AirNav.

 

 
 

FBO, Fuel Providers, and Aircraft Ground Support

  
 Business Name 
 
 Contact 
 
 Services / Description 
 
Fuel Prices
 
Comments
  
 Clarion County Airport
814-226-9993
[web site]
[email]
Airport management, Aviation fuel, Aircraft ground handling, Aircraft parking (ramp or tiedown), Hangars, Hangar leasing / sales, Passenger terminal and lounge, ...

More info about Clarion County Airport
EPIC
100LL Jet A
AS $4.50 $3.50 
 Updated 24-Nov-2020
 
   write
AS=Assisted/Self Service
Update Fuel Prices
 

Would you like to see your business listed on this page?

 If your business provides an interesting product or service to pilots, flight crews, aircraft, or users of the Clarion County Airport, you should consider listing it here.  To start the listing process, click on the button below
 
Add a business
 

Other Pages about Clarion County Airport

www.clarionairport.com
users.penn.com/~airport
 
Update a link
 
Copyright © AirNav, LLC. All rights reserved. Privacy Policy  Contact